Ana Sayfa
METAR-TAF:

METAR-TAF

Havaalanları :

Wasilla, Alaska, Amerika Birleşik Devletleri

Enlem: 61-34-19N, Boylam: 149-32-26W, yükseklik: 106 m

Güncel hava durumu gözlemi

Rapor saat 12:56 UTC de 31 dakika önce yapıldı.
Sakin rüzgar
Sıcaklık 11°C
Nem 94%
Basınç 1023 hPa
Görüş mesafesi: 16.1 km
Açık gökyüzü

METAR: PAWS 211256Z AUTO 00000KT 10SM CLR 11/10 A3021 RMK AO2 SLP229 T01060100

Saat: 05:27 (13:27 UTC)


TAF: eksik

4.000'den fazla havaalanı için hava durumu gözlemleri ve tahminleri (METAR ve TAF raporları).

Kullanılabilir istasyonlar harita üzerinde sarı ve kırmızı noktalarla gösterilir.

İstasyonun adını görmek için fareyi noktanın üzerinde gezdirin.

Sonrasında hava gözlem ve tahminlerini görmek için tıklayın.

Haritayı değiştirmek için: yaklaştırmak için siyah artı işaretli yeşil düğmeye ve uzaklaştırmak için de eksi işaretli düğmeye hızla tıklayın; bitişik haritalar için yeşil okları kullanın.


METAR-TAF: